sensor_id;sensor_type;location;lat;lon;timestamp;P1;durP1;ratioP1;P2;durP2;ratioP2
1679;SDS011;838;51.794;12.258;2024-01-06T00:00:38;12.70;;;7.70;;
1679;SDS011;838;51.794;12.258;2024-01-06T00:03:04;11.57;;;6.80;;
1679;SDS011;838;51.794;12.258;2024-01-06T00:05:29;12.87;;;8.00;;
1679;SDS011;838;51.794;12.258;2024-01-06T00:07:55;12.63;;;7.67;;
1679;SDS011;838;51.794;12.258;2024-01-06T00:10:21;11.93;;;7.50;;
1679;SDS011;838;51.794;12.258;2024-01-06T00:12:47;14.23;;;7.67;;
1679;SDS011;838;51.794;12.258;2024-01-06T00:15:13;11.63;;;7.33;;
1679;SDS011;838;51.794;12.258;2024-01-06T00:17:39;12.60;;;7.10;;
1679;SDS011;838;51.794;12.258;2024-01-06T00:20:05;12.60;;;8.20;;
1679;SDS011;838;51.794;12.258;2024-01-06T00:22:31;13.73;;;7.57;;
1679;SDS011;838;51.794;12.258;2024-01-06T00:24:57;11.27;;;6.53;;
1679;SDS011;838;51.794;12.258;2024-01-06T00:27:23;11.07;;;7.20;;
1679;SDS011;838;51.794;12.258;2024-01-06T00:29:48;12.63;;;7.60;;
1679;SDS011;838;51.794;12.258;2024-01-06T00:32:14;12.20;;;7.10;;
1679;SDS011;838;51.794;12.258;2024-01-06T00:34:40;15.30;;;8.77;;
1679;SDS011;838;51.794;12.258;2024-01-06T00:37:06;11.27;;;7.23;;
1679;SDS011;838;51.794;12.258;2024-01-06T00:39:31;12.93;;;7.90;;
1679;SDS011;838;51.794;12.258;2024-01-06T00:41:57;17.83;;;7.27;;
1679;SDS011;838;51.794;12.258;2024-01-06T00:44:23;15.03;;;7.27;;
1679;SDS011;838;51.794;12.258;2024-01-06T00:46:48;10.40;;;6.50;;
1679;SDS011;838;51.794;12.258;2024-01-06T00:49:14;9.70;;;5.87;;
1679;SDS011;838;51.794;12.258;2024-01-06T00:51:40;8.60;;;6.43;;
1679;SDS011;838;51.794;12.258;2024-01-06T00:54:05;12.30;;;7.23;;
1679;SDS011;838;51.794;12.258;2024-01-06T00:56:31;14.20;;;8.07;;
1679;SDS011;838;51.794;12.258;2024-01-06T00:58:57;11.40;;;7.17;;
1679;SDS011;838;51.794;12.258;2024-01-06T01:01:23;13.40;;;8.60;;
1679;SDS011;838;51.794;12.258;2024-01-06T01:03:48;12.50;;;8.70;;
1679;SDS011;838;51.794;12.258;2024-01-06T01:06:14;15.13;;;8.07;;
1679;SDS011;838;51.794;12.258;2024-01-06T01:08:40;13.57;;;7.53;;
1679;SDS011;838;51.794;12.258;2024-01-06T01:11:05;11.43;;;7.43;;
1679;SDS011;838;51.794;12.258;2024-01-06T01:13:31;12.10;;;8.47;;
1679;SDS011;838;51.794;12.258;2024-01-06T01:15:57;13.57;;;7.90;;
1679;SDS011;838;51.794;12.258;2024-01-06T01:18:22;12.37;;;7.50;;
1679;SDS011;838;51.794;12.258;2024-01-06T01:20:48;13.93;;;8.00;;
1679;SDS011;838;51.794;12.258;2024-01-06T01:23:14;12.00;;;6.90;;
1679;SDS011;838;51.794;12.258;2024-01-06T01:25:39;11.67;;;8.20;;
1679;SDS011;838;51.794;12.258;2024-01-06T01:28:05;11.40;;;7.20;;
1679;SDS011;838;51.794;12.258;2024-01-06T01:30:31;9.67;;;6.73;;
1679;SDS011;838;51.794;12.258;2024-01-06T01:32:57;13.47;;;6.70;;
1679;SDS011;838;51.794;12.258;2024-01-06T01:35:23;10.00;;;7.20;;
1679;SDS011;838;51.794;12.258;2024-01-06T01:37:49;9.97;;;6.90;;
1679;SDS011;838;51.794;12.258;2024-01-06T01:40:15;11.00;;;7.73;;
1679;SDS011;838;51.794;12.258;2024-01-06T01:42:42;10.63;;;6.60;;
1679;SDS011;838;51.794;12.258;2024-01-06T01:45:08;9.60;;;6.73;;
1679;SDS011;838;51.794;12.258;2024-01-06T01:47:34;11.80;;;7.30;;
1679;SDS011;838;51.794;12.258;2024-01-06T01:50:01;12.40;;;7.97;;
1679;SDS011;838;51.794;12.258;2024-01-06T01:52:28;16.07;;;7.33;;
1679;SDS011;838;51.794;12.258;2024-01-06T01:54:53;13.67;;;7.70;;
1679;SDS011;838;51.794;12.258;2024-01-06T01:57:19;10.53;;;5.83;;
1679;SDS011;838;51.794;12.258;2024-01-06T01:59:49;9.33;;;6.87;;
1679;SDS011;838;51.794;12.258;2024-01-06T02:02:15;11.23;;;8.00;;
1679;SDS011;838;51.794;12.258;2024-01-06T02:04:42;12.60;;;7.70;;
1679;SDS011;838;51.794;12.258;2024-01-06T02:07:09;11.77;;;7.87;;
1679;SDS011;838;51.794;12.258;2024-01-06T02:09:38;11.73;;;7.47;;
1679;SDS011;838;51.794;12.258;2024-01-06T02:12:04;10.97;;;7.13;;
1679;SDS011;838;51.794;12.258;2024-01-06T02:14:30;9.60;;;7.33;;
1679;SDS011;838;51.794;12.258;2024-01-06T02:16:57;12.00;;;7.83;;
1679;SDS011;838;51.794;12.258;2024-01-06T02:19:23;9.70;;;6.67;;
1679;SDS011;838;51.794;12.258;2024-01-06T02:21:51;12.80;;;7.97;;
1679;SDS011;838;51.794;12.258;2024-01-06T02:24:18;9.70;;;7.03;;
1679;SDS011;838;51.794;12.258;2024-01-06T02:26:44;15.90;;;7.73;;
1679;SDS011;838;51.794;12.258;2024-01-06T02:29:09;10.80;;;7.50;;
1679;SDS011;838;51.794;12.258;2024-01-06T02:31:35;11.70;;;7.30;;
1679;SDS011;838;51.794;12.258;2024-01-06T02:34:01;12.90;;;7.60;;
1679;SDS011;838;51.794;12.258;2024-01-06T02:36:26;11.13;;;7.40;;
1679;SDS011;838;51.794;12.258;2024-01-06T02:38:52;9.43;;;6.60;;
1679;SDS011;838;51.794;12.258;2024-01-06T02:41:18;11.47;;;7.57;;
1679;SDS011;838;51.794;12.258;2024-01-06T02:43:43;10.60;;;7.13;;
1679;SDS011;838;51.794;12.258;2024-01-06T02:46:09;11.97;;;8.03;;
1679;SDS011;838;51.794;12.258;2024-01-06T02:48:35;12.30;;;7.63;;
1679;SDS011;838;51.794;12.258;2024-01-06T02:51:00;13.60;;;6.90;;
1679;SDS011;838;51.794;12.258;2024-01-06T02:53:26;11.67;;;7.30;;
1679;SDS011;838;51.794;12.258;2024-01-06T02:55:52;12.60;;;7.17;;
1679;SDS011;838;51.794;12.258;2024-01-06T02:58:17;11.27;;;7.00;;
1679;SDS011;838;51.794;12.258;2024-01-06T03:00:43;13.10;;;7.47;;
1679;SDS011;838;51.794;12.258;2024-01-06T03:03:09;10.80;;;6.87;;
1679;SDS011;838;51.794;12.258;2024-01-06T03:05:34;10.20;;;6.93;;
1679;SDS011;838;51.794;12.258;2024-01-06T03:08:02;11.67;;;6.80;;
1679;SDS011;838;51.794;12.258;2024-01-06T03:10:28;11.93;;;6.50;;
1679;SDS011;838;51.794;12.258;2024-01-06T03:12:54;10.97;;;6.00;;
1679;SDS011;838;51.794;12.258;2024-01-06T03:15:19;10.90;;;6.43;;
1679;SDS011;838;51.794;12.258;2024-01-06T03:17:45;10.47;;;6.70;;
1679;SDS011;838;51.794;12.258;2024-01-06T03:20:11;12.67;;;7.07;;
1679;SDS011;838;51.794;12.258;2024-01-06T03:22:37;12.50;;;7.30;;
1679;SDS011;838;51.794;12.258;2024-01-06T03:25:05;19.60;;;7.43;;
1679;SDS011;838;51.794;12.258;2024-01-06T03:27:31;11.00;;;7.00;;
1679;SDS011;838;51.794;12.258;2024-01-06T03:29:57;13.23;;;7.33;;
1679;SDS011;838;51.794;12.258;2024-01-06T03:32:22;11.07;;;7.60;;
1679;SDS011;838;51.794;12.258;2024-01-06T03:34:49;13.00;;;7.20;;
1679;SDS011;838;51.794;12.258;2024-01-06T03:37:15;11.07;;;8.10;;
1679;SDS011;838;51.794;12.258;2024-01-06T03:39:41;10.10;;;6.63;;
1679;SDS011;838;51.794;12.258;2024-01-06T03:42:06;11.50;;;7.27;;
1679;SDS011;838;51.794;12.258;2024-01-06T03:44:32;12.97;;;7.30;;
1679;SDS011;838;51.794;12.258;2024-01-06T03:46:59;10.63;;;7.57;;
1679;SDS011;838;51.794;12.258;2024-01-06T03:49:25;12.70;;;6.70;;
1679;SDS011;838;51.794;12.258;2024-01-06T03:51:51;12.20;;;6.97;;
1679;SDS011;838;51.794;12.258;2024-01-06T03:54:17;11.17;;;7.50;;
1679;SDS011;838;51.794;12.258;2024-01-06T03:56:42;10.10;;;6.80;;
1679;SDS011;838;51.794;12.258;2024-01-06T03:59:08;11.97;;;7.27;;
1679;SDS011;838;51.794;12.258;2024-01-06T04:01:34;12.30;;;6.80;;
1679;SDS011;838;51.794;12.258;2024-01-06T04:04:04;11.27;;;6.80;;
1679;SDS011;838;51.794;12.258;2024-01-06T04:06:30;14.23;;;7.60;;
1679;SDS011;838;51.794;12.258;2024-01-06T04:09:00;15.67;;;7.43;;
1679;SDS011;838;51.794;12.258;2024-01-06T04:11:26;13.33;;;7.43;;
1679;SDS011;838;51.794;12.258;2024-01-06T04:13:51;15.67;;;7.20;;
1679;SDS011;838;51.794;12.258;2024-01-06T04:16:17;13.20;;;7.83;;
1679;SDS011;838;51.794;12.258;2024-01-06T04:18:43;9.07;;;6.40;;
1679;SDS011;838;51.794;12.258;2024-01-06T04:21:09;12.37;;;7.53;;
1679;SDS011;838;51.794;12.258;2024-01-06T04:23:36;12.73;;;7.60;;
1679;SDS011;838;51.794;12.258;2024-01-06T04:26:01;11.23;;;6.37;;
1679;SDS011;838;51.794;12.258;2024-01-06T04:28:29;10.13;;;6.30;;
1679;SDS011;838;51.794;12.258;2024-01-06T04:30:55;11.23;;;7.10;;
1679;SDS011;838;51.794;12.258;2024-01-06T04:33:21;8.87;;;5.80;;
1679;SDS011;838;51.794;12.258;2024-01-06T04:35:47;9.80;;;6.97;;
1679;SDS011;838;51.794;12.258;2024-01-06T04:38:12;14.07;;;7.60;;
1679;SDS011;838;51.794;12.258;2024-01-06T04:40:38;10.90;;;6.43;;
1679;SDS011;838;51.794;12.258;2024-01-06T04:43:04;10.50;;;7.57;;
1679;SDS011;838;51.794;12.258;2024-01-06T04:45:32;14.43;;;6.50;;
1679;SDS011;838;51.794;12.258;2024-01-06T04:47:58;17.13;;;6.60;;
1679;SDS011;838;51.794;12.258;2024-01-06T04:50:24;12.17;;;6.90;;
1679;SDS011;838;51.794;12.258;2024-01-06T04:52:49;8.97;;;6.20;;
1679;SDS011;838;51.794;12.258;2024-01-06T04:55:15;10.00;;;6.27;;
1679;SDS011;838;51.794;12.258;2024-01-06T04:57:41;10.80;;;5.83;;
1679;SDS011;838;51.794;12.258;2024-01-06T05:00:06;10.63;;;6.60;;
1679;SDS011;838;51.794;12.258;2024-01-06T05:02:33;10.33;;;6.30;;
1679;SDS011;838;51.794;12.258;2024-01-06T05:04:59;8.37;;;5.47;;
1679;SDS011;838;51.794;12.258;2024-01-06T05:07:24;9.63;;;6.27;;
1679;SDS011;838;51.794;12.258;2024-01-06T05:09:50;9.37;;;5.60;;
1679;SDS011;838;51.794;12.258;2024-01-06T05:12:16;9.30;;;6.27;;
1679;SDS011;838;51.794;12.258;2024-01-06T05:14:41;16.63;;;6.10;;
1679;SDS011;838;51.794;12.258;2024-01-06T05:17:07;10.20;;;5.97;;
1679;SDS011;838;51.794;12.258;2024-01-06T05:19:34;12.00;;;5.67;;
1679;SDS011;838;51.794;12.258;2024-01-06T05:22:00;8.33;;;6.03;;
1679;SDS011;838;51.794;12.258;2024-01-06T05:24:26;9.70;;;6.67;;
1679;SDS011;838;51.794;12.258;2024-01-06T05:26:51;9.40;;;5.60;;
1679;SDS011;838;51.794;12.258;2024-01-06T05:29:17;11.93;;;6.33;;
1679;SDS011;838;51.794;12.258;2024-01-06T05:31:43;9.47;;;6.33;;
1679;SDS011;838;51.794;12.258;2024-01-06T05:34:08;10.57;;;6.07;;
1679;SDS011;838;51.794;12.258;2024-01-06T05:36:35;13.60;;;6.10;;
1679;SDS011;838;51.794;12.258;2024-01-06T05:39:01;9.40;;;6.60;;
1679;SDS011;838;51.794;12.258;2024-01-06T05:41:27;11.67;;;6.00;;
1679;SDS011;838;51.794;12.258;2024-01-06T05:43:53;13.63;;;6.70;;
1679;SDS011;838;51.794;12.258;2024-01-06T05:46:21;8.60;;;5.67;;
1679;SDS011;838;51.794;12.258;2024-01-06T05:48:49;10.23;;;5.60;;
1679;SDS011;838;51.794;12.258;2024-01-06T05:51:15;8.80;;;5.80;;
1679;SDS011;838;51.794;12.258;2024-01-06T05:53:41;8.60;;;5.50;;
1679;SDS011;838;51.794;12.258;2024-01-06T05:56:09;9.03;;;6.03;;
1679;SDS011;838;51.794;12.258;2024-01-06T05:58:35;9.90;;;6.10;;
1679;SDS011;838;51.794;12.258;2024-01-06T06:01:01;12.33;;;6.37;;
1679;SDS011;838;51.794;12.258;2024-01-06T06:03:26;11.17;;;6.60;;
1679;SDS011;838;51.794;12.258;2024-01-06T06:05:52;11.20;;;6.33;;
1679;SDS011;838;51.794;12.258;2024-01-06T06:08:18;10.90;;;6.50;;
1679;SDS011;838;51.794;12.258;2024-01-06T06:10:44;12.33;;;6.67;;
1679;SDS011;838;51.794;12.258;2024-01-06T06:13:42;16.83;;;6.50;;
1679;SDS011;838;51.794;12.258;2024-01-06T06:16:11;12.07;;;6.40;;
1679;SDS011;838;51.794;12.258;2024-01-06T06:18:40;20.50;;;8.80;;
1679;SDS011;838;51.794;12.258;2024-01-06T06:21:06;11.97;;;7.00;;
1679;SDS011;838;51.794;12.258;2024-01-06T06:23:33;13.20;;;7.70;;
1679;SDS011;838;51.794;12.258;2024-01-06T06:25:59;13.00;;;6.40;;
1679;SDS011;838;51.794;12.258;2024-01-06T06:28:29;11.20;;;6.50;;
1679;SDS011;838;51.794;12.258;2024-01-06T06:30:54;12.87;;;7.47;;
1679;SDS011;838;51.794;12.258;2024-01-06T06:33:20;17.17;;;7.50;;
1679;SDS011;838;51.794;12.258;2024-01-06T06:35:46;10.30;;;6.77;;
1679;SDS011;838;51.794;12.258;2024-01-06T06:38:11;15.20;;;8.03;;
1679;SDS011;838;51.794;12.258;2024-01-06T06:40:37;31.97;;;8.23;;
1679;SDS011;838;51.794;12.258;2024-01-06T06:43:03;25.00;;;7.83;;
1679;SDS011;838;51.794;12.258;2024-01-06T06:45:29;14.10;;;6.80;;
1679;SDS011;838;51.794;12.258;2024-01-06T06:47:54;17.30;;;8.00;;
1679;SDS011;838;51.794;12.258;2024-01-06T06:50:20;44.87;;;9.30;;
1679;SDS011;838;51.794;12.258;2024-01-06T06:52:46;21.47;;;8.60;;
1679;SDS011;838;51.794;12.258;2024-01-06T06:55:12;25.70;;;9.90;;
1679;SDS011;838;51.794;12.258;2024-01-06T06:57:38;14.27;;;7.33;;
1679;SDS011;838;51.794;12.258;2024-01-06T07:00:04;32.63;;;9.17;;
1679;SDS011;838;51.794;12.258;2024-01-06T07:02:32;29.93;;;10.13;;
1679;SDS011;838;51.794;12.258;2024-01-06T07:04:59;33.23;;;8.07;;
1679;SDS011;838;51.794;12.258;2024-01-06T07:07:24;17.40;;;7.07;;
1679;SDS011;838;51.794;12.258;2024-01-06T07:09:50;17.13;;;7.87;;
1679;SDS011;838;51.794;12.258;2024-01-06T07:12:16;15.70;;;7.93;;
1679;SDS011;838;51.794;12.258;2024-01-06T07:14:42;14.80;;;7.80;;
1679;SDS011;838;51.794;12.258;2024-01-06T07:17:07;15.40;;;9.43;;
1679;SDS011;838;51.794;12.258;2024-01-06T07:19:34;16.33;;;9.40;;
1679;SDS011;838;51.794;12.258;2024-01-06T07:22:01;15.93;;;8.53;;
1679;SDS011;838;51.794;12.258;2024-01-06T07:24:27;24.50;;;9.37;;
1679;SDS011;838;51.794;12.258;2024-01-06T07:26:52;21.23;;;8.10;;
1679;SDS011;838;51.794;12.258;2024-01-06T07:29:18;11.67;;;8.40;;
1679;SDS011;838;51.794;12.258;2024-01-06T07:31:44;11.73;;;7.37;;
1679;SDS011;838;51.794;12.258;2024-01-06T07:34:10;17.50;;;8.37;;
1679;SDS011;838;51.794;12.258;2024-01-06T07:36:36;19.50;;;8.80;;
1679;SDS011;838;51.794;12.258;2024-01-06T07:39:03;14.17;;;8.67;;
1679;SDS011;838;51.794;12.258;2024-01-06T07:41:29;17.60;;;9.30;;
1679;SDS011;838;51.794;12.258;2024-01-06T07:43:57;13.07;;;9.00;;
1679;SDS011;838;51.794;12.258;2024-01-06T07:46:23;18.40;;;8.90;;
1679;SDS011;838;51.794;12.258;2024-01-06T07:48:49;31.73;;;9.83;;
1679;SDS011;838;51.794;12.258;2024-01-06T07:51:14;14.03;;;8.70;;
1679;SDS011;838;51.794;12.258;2024-01-06T07:53:40;20.87;;;8.63;;
1679;SDS011;838;51.794;12.258;2024-01-06T07:56:07;17.70;;;9.33;;
1679;SDS011;838;51.794;12.258;2024-01-06T07:58:33;18.13;;;9.53;;
1679;SDS011;838;51.794;12.258;2024-01-06T08:00:59;32.83;;;10.30;;
1679;SDS011;838;51.794;12.258;2024-01-06T08:03:25;26.43;;;11.03;;
1679;SDS011;838;51.794;12.258;2024-01-06T08:05:51;24.27;;;10.40;;
1679;SDS011;838;51.794;12.258;2024-01-06T08:08:16;28.67;;;10.20;;
1679;SDS011;838;51.794;12.258;2024-01-06T08:10:43;16.90;;;9.70;;
1679;SDS011;838;51.794;12.258;2024-01-06T08:13:09;20.60;;;10.60;;
1679;SDS011;838;51.794;12.258;2024-01-06T08:15:35;19.80;;;11.10;;
1679;SDS011;838;51.794;12.258;2024-01-06T08:18:01;29.63;;;9.67;;
1679;SDS011;838;51.794;12.258;2024-01-06T08:20:26;22.87;;;11.67;;
1679;SDS011;838;51.794;12.258;2024-01-06T08:22:52;24.23;;;10.33;;
1679;SDS011;838;51.794;12.258;2024-01-06T08:25:18;17.67;;;9.60;;
1679;SDS011;838;51.794;12.258;2024-01-06T08:27:44;20.50;;;9.53;;
1679;SDS011;838;51.794;12.258;2024-01-06T08:30:09;21.33;;;9.57;;
1679;SDS011;838;51.794;12.258;2024-01-06T08:32:36;15.17;;;8.53;;
1679;SDS011;838;51.794;12.258;2024-01-06T08:35:02;17.23;;;9.43;;
1679;SDS011;838;51.794;12.258;2024-01-06T08:37:28;17.87;;;10.50;;
1679;SDS011;838;51.794;12.258;2024-01-06T08:39:54;21.67;;;10.50;;
1679;SDS011;838;51.794;12.258;2024-01-06T08:42:20;18.90;;;10.10;;
1679;SDS011;838;51.794;12.258;2024-01-06T08:44:46;17.07;;;10.20;;
1679;SDS011;838;51.794;12.258;2024-01-06T08:47:15;16.70;;;10.40;;
1679;SDS011;838;51.794;12.258;2024-01-06T08:49:41;16.87;;;10.50;;
1679;SDS011;838;51.794;12.258;2024-01-06T08:52:06;19.37;;;10.00;;
1679;SDS011;838;51.794;12.258;2024-01-06T08:54:32;15.40;;;10.03;;
1679;SDS011;838;51.794;12.258;2024-01-06T08:56:58;21.00;;;9.17;;
1679;SDS011;838;51.794;12.258;2024-01-06T08:59:23;22.90;;;10.13;;
1679;SDS011;838;51.794;12.258;2024-01-06T09:01:49;18.20;;;10.00;;
1679;SDS011;838;51.794;12.258;2024-01-06T09:04:15;19.70;;;10.00;;
1679;SDS011;838;51.794;12.258;2024-01-06T09:06:40;20.60;;;10.70;;
1679;SDS011;838;51.794;12.258;2024-01-06T09:09:11;18.83;;;9.40;;
1679;SDS011;838;51.794;12.258;2024-01-06T09:11:37;16.10;;;9.77;;
1679;SDS011;838;51.794;12.258;2024-01-06T09:14:03;15.23;;;9.77;;
1679;SDS011;838;51.794;12.258;2024-01-06T09:16:29;20.00;;;9.77;;
1679;SDS011;838;51.794;12.258;2024-01-06T09:18:54;15.60;;;8.90;;
1679;SDS011;838;51.794;12.258;2024-01-06T09:21:20;16.00;;;9.03;;
1679;SDS011;838;51.794;12.258;2024-01-06T09:23:46;19.13;;;10.87;;
1679;SDS011;838;51.794;12.258;2024-01-06T09:26:12;15.50;;;9.90;;
1679;SDS011;838;51.794;12.258;2024-01-06T09:28:37;19.37;;;10.30;;
1679;SDS011;838;51.794;12.258;2024-01-06T09:31:04;19.90;;;9.40;;
1679;SDS011;838;51.794;12.258;2024-01-06T09:33:30;20.23;;;10.60;;
1679;SDS011;838;51.794;12.258;2024-01-06T09:35:57;23.40;;;10.33;;
1679;SDS011;838;51.794;12.258;2024-01-06T09:38:23;21.17;;;11.10;;
1679;SDS011;838;51.794;12.258;2024-01-06T09:40:49;20.40;;;11.40;;
1679;SDS011;838;51.794;12.258;2024-01-06T09:43:15;21.00;;;11.17;;
1679;SDS011;838;51.794;12.258;2024-01-06T09:45:41;15.63;;;9.83;;
1679;SDS011;838;51.794;12.258;2024-01-06T09:48:10;25.13;;;10.60;;
1679;SDS011;838;51.794;12.258;2024-01-06T09:50:40;20.90;;;10.53;;
1679;SDS011;838;51.794;12.258;2024-01-06T09:53:10;19.07;;;10.03;;
1679;SDS011;838;51.794;12.258;2024-01-06T09:55:37;23.97;;;11.40;;
1679;SDS011;838;51.794;12.258;2024-01-06T09:58:04;19.00;;;9.87;;
1679;SDS011;838;51.794;12.258;2024-01-06T10:00:31;20.00;;;10.30;;
1679;SDS011;838;51.794;12.258;2024-01-06T10:02:57;22.43;;;10.67;;
1679;SDS011;838;51.794;12.258;2024-01-06T10:05:23;22.53;;;10.03;;
1679;SDS011;838;51.794;12.258;2024-01-06T10:07:49;20.10;;;11.10;;
1679;SDS011;838;51.794;12.258;2024-01-06T10:10:15;27.80;;;11.83;;
1679;SDS011;838;51.794;12.258;2024-01-06T10:12:41;24.40;;;11.13;;
1679;SDS011;838;51.794;12.258;2024-01-06T10:15:08;19.93;;;10.97;;
1679;SDS011;838;51.794;12.258;2024-01-06T10:17:39;26.90;;;10.50;;
1679;SDS011;838;51.794;12.258;2024-01-06T10:20:06;20.53;;;10.93;;
1679;SDS011;838;51.794;12.258;2024-01-06T10:22:35;19.90;;;10.87;;
1679;SDS011;838;51.794;12.258;2024-01-06T10:25:05;22.97;;;11.40;;
1679;SDS011;838;51.794;12.258;2024-01-06T10:27:36;24.67;;;11.60;;
1679;SDS011;838;51.794;12.258;2024-01-06T10:30:06;19.57;;;10.93;;
1679;SDS011;838;51.794;12.258;2024-01-06T10:32:32;22.73;;;10.80;;
1679;SDS011;838;51.794;12.258;2024-01-06T10:34:59;20.80;;;12.60;;
1679;SDS011;838;51.794;12.258;2024-01-06T10:37:28;26.47;;;11.90;;
1679;SDS011;838;51.794;12.258;2024-01-06T10:40:11;22.57;;;10.97;;
1679;SDS011;838;51.794;12.258;2024-01-06T10:42:38;23.20;;;10.60;;
1679;SDS011;838;51.794;12.258;2024-01-06T10:45:08;25.50;;;12.20;;
1679;SDS011;838;51.794;12.258;2024-01-06T10:47:40;27.63;;;13.60;;
1679;SDS011;838;51.794;12.258;2024-01-06T10:50:07;22.57;;;11.90;;
1679;SDS011;838;51.794;12.258;2024-01-06T10:52:33;25.83;;;11.87;;
1679;SDS011;838;51.794;12.258;2024-01-06T10:55:02;29.37;;;14.00;;
1679;SDS011;838;51.794;12.258;2024-01-06T10:57:30;26.10;;;14.37;;
1679;SDS011;838;51.794;12.258;2024-01-06T10:59:57;24.77;;;13.43;;
1679;SDS011;838;51.794;12.258;2024-01-06T11:02:24;28.33;;;13.50;;
1679;SDS011;838;51.794;12.258;2024-01-06T11:04:50;29.60;;;13.57;;
1679;SDS011;838;51.794;12.258;2024-01-06T11:07:18;29.83;;;13.80;;
1679;SDS011;838;51.794;12.258;2024-01-06T11:09:59;29.07;;;13.37;;
1679;SDS011;838;51.794;12.258;2024-01-06T11:12:30;32.90;;;14.17;;
1679;SDS011;838;51.794;12.258;2024-01-06T11:14:56;42.17;;;17.17;;
1679;SDS011;838;51.794;12.258;2024-01-06T11:17:48;36.20;;;15.80;;
1679;SDS011;838;51.794;12.258;2024-01-06T11:20:14;31.27;;;14.47;;
1679;SDS011;838;51.794;12.258;2024-01-06T11:22:39;34.53;;;16.17;;
1679;SDS011;838;51.794;12.258;2024-01-06T11:25:07;36.10;;;16.03;;
1679;SDS011;838;51.794;12.258;2024-01-06T11:27:43;36.50;;;18.40;;
1679;SDS011;838;51.794;12.258;2024-01-06T11:30:25;39.67;;;17.23;;
1679;SDS011;838;51.794;12.258;2024-01-06T11:32:53;42.47;;;17.50;;
1679;SDS011;838;51.794;12.258;2024-01-06T11:35:24;32.90;;;15.60;;
1679;SDS011;838;51.794;12.258;2024-01-06T11:37:53;33.93;;;17.00;;
1679;SDS011;838;51.794;12.258;2024-01-06T11:45:28;38.73;;;16.03;;
1679;SDS011;838;51.794;12.258;2024-01-06T11:47:56;38.43;;;18.93;;
1679;SDS011;838;51.794;12.258;2024-01-06T11:50:24;39.20;;;15.60;;
1679;SDS011;838;51.794;12.258;2024-01-06T11:52:51;40.03;;;16.70;;
1679;SDS011;838;51.794;12.258;2024-01-06T11:55:18;40.97;;;19.77;;
1679;SDS011;838;51.794;12.258;2024-01-06T11:57:44;42.70;;;17.77;;
1679;SDS011;838;51.794;12.258;2024-01-06T12:00:10;41.07;;;19.53;;
1679;SDS011;838;51.794;12.258;2024-01-06T12:02:39;43.20;;;20.07;;
1679;SDS011;838;51.794;12.258;2024-01-06T12:05:05;37.40;;;19.57;;
1679;SDS011;838;51.794;12.258;2024-01-06T12:07:31;43.83;;;18.60;;
1679;SDS011;838;51.794;12.258;2024-01-06T12:10:01;40.03;;;19.73;;
1679;SDS011;838;51.794;12.258;2024-01-06T12:12:28;47.77;;;20.43;;
1679;SDS011;838;51.794;12.258;2024-01-06T12:14:53;41.87;;;18.90;;
1679;SDS011;838;51.794;12.258;2024-01-06T12:17:20;46.47;;;20.47;;
1679;SDS011;838;51.794;12.258;2024-01-06T12:19:46;42.83;;;20.73;;
1679;SDS011;838;51.794;12.258;2024-01-06T12:22:13;49.43;;;19.90;;
1679;SDS011;838;51.794;12.258;2024-01-06T12:24:40;42.83;;;20.43;;
1679;SDS011;838;51.794;12.258;2024-01-06T12:27:10;54.83;;;22.10;;
1679;SDS011;838;51.794;12.258;2024-01-06T12:29:42;46.87;;;19.47;;
1679;SDS011;838;51.794;12.258;2024-01-06T12:32:08;44.63;;;21.47;;
1679;SDS011;838;51.794;12.258;2024-01-06T12:34:35;60.73;;;21.60;;
1679;SDS011;838;51.794;12.258;2024-01-06T12:37:01;46.20;;;20.93;;
1679;SDS011;838;51.794;12.258;2024-01-06T12:39:28;36.80;;;20.87;;
1679;SDS011;838;51.794;12.258;2024-01-06T12:41:54;53.30;;;22.77;;
1679;SDS011;838;51.794;12.258;2024-01-06T12:44:20;56.70;;;22.23;;
1679;SDS011;838;51.794;12.258;2024-01-06T12:46:46;48.17;;;20.30;;
1679;SDS011;838;51.794;12.258;2024-01-06T12:49:13;49.43;;;21.17;;
1679;SDS011;838;51.794;12.258;2024-01-06T12:51:38;53.07;;;21.80;;
1679;SDS011;838;51.794;12.258;2024-01-06T12:54:04;47.07;;;20.67;;
1679;SDS011;838;51.794;12.258;2024-01-06T12:56:30;53.93;;;22.20;;
1679;SDS011;838;51.794;12.258;2024-01-06T12:58:56;49.07;;;21.20;;
1679;SDS011;838;51.794;12.258;2024-01-06T13:01:22;48.87;;;23.27;;
1679;SDS011;838;51.794;12.258;2024-01-06T13:03:48;61.73;;;23.40;;
1679;SDS011;838;51.794;12.258;2024-01-06T13:06:13;51.33;;;21.70;;
1679;SDS011;838;51.794;12.258;2024-01-06T13:08:41;58.17;;;22.07;;
1679;SDS011;838;51.794;12.258;2024-01-06T13:11:07;60.50;;;22.63;;
1679;SDS011;838;51.794;12.258;2024-01-06T13:13:33;51.00;;;24.30;;
1679;SDS011;838;51.794;12.258;2024-01-06T13:15:59;57.93;;;24.00;;
1679;SDS011;838;51.794;12.258;2024-01-06T13:18:28;58.20;;;25.97;;
1679;SDS011;838;51.794;12.258;2024-01-06T13:20:54;57.73;;;23.00;;
1679;SDS011;838;51.794;12.258;2024-01-06T13:23:20;64.87;;;23.97;;
1679;SDS011;838;51.794;12.258;2024-01-06T13:25:46;73.90;;;25.67;;
1679;SDS011;838;51.794;12.258;2024-01-06T13:28:12;54.90;;;24.43;;
1679;SDS011;838;51.794;12.258;2024-01-06T13:30:37;68.00;;;25.57;;
1679;SDS011;838;51.794;12.258;2024-01-06T13:33:06;56.67;;;24.97;;
1679;SDS011;838;51.794;12.258;2024-01-06T13:35:34;68.17;;;24.60;;
1679;SDS011;838;51.794;12.258;2024-01-06T13:38:01;62.20;;;26.20;;
1679;SDS011;838;51.794;12.258;2024-01-06T13:40:29;56.77;;;23.00;;
1679;SDS011;838;51.794;12.258;2024-01-06T13:42:55;67.13;;;24.13;;
1679;SDS011;838;51.794;12.258;2024-01-06T13:45:21;61.50;;;25.50;;
1679;SDS011;838;51.794;12.258;2024-01-06T13:47:47;68.53;;;24.60;;
1679;SDS011;838;51.794;12.258;2024-01-06T13:50:15;64.83;;;23.53;;
1679;SDS011;838;51.794;12.258;2024-01-06T13:52:42;71.03;;;26.03;;
1679;SDS011;838;51.794;12.258;2024-01-06T13:55:08;69.10;;;26.40;;
1679;SDS011;838;51.794;12.258;2024-01-06T13:57:35;65.47;;;26.33;;
1679;SDS011;838;51.794;12.258;2024-01-06T14:00:02;66.83;;;25.30;;
1679;SDS011;838;51.794;12.258;2024-01-06T14:02:29;73.30;;;25.97;;
1679;SDS011;838;51.794;12.258;2024-01-06T14:04:55;67.57;;;26.00;;
1679;SDS011;838;51.794;12.258;2024-01-06T14:07:21;68.87;;;27.33;;
1679;SDS011;838;51.794;12.258;2024-01-06T14:09:47;82.83;;;29.97;;
1679;SDS011;838;51.794;12.258;2024-01-06T14:12:13;71.87;;;26.20;;
1679;SDS011;838;51.794;12.258;2024-01-06T14:14:39;72.63;;;27.63;;
1679;SDS011;838;51.794;12.258;2024-01-06T14:17:08;71.50;;;29.70;;
1679;SDS011;838;51.794;12.258;2024-01-06T14:19:34;87.40;;;29.20;;
1679;SDS011;838;51.794;12.258;2024-01-06T14:22:00;71.13;;;29.70;;
1679;SDS011;838;51.794;12.258;2024-01-06T14:24:25;78.17;;;27.80;;
1679;SDS011;838;51.794;12.258;2024-01-06T14:26:52;79.67;;;28.27;;
1679;SDS011;838;51.794;12.258;2024-01-06T14:29:20;77.77;;;27.50;;
1679;SDS011;838;51.794;12.258;2024-01-06T14:31:46;74.07;;;26.33;;
1679;SDS011;838;51.794;12.258;2024-01-06T14:34:12;65.23;;;24.87;;
1679;SDS011;838;51.794;12.258;2024-01-06T14:36:38;69.73;;;26.77;;
1679;SDS011;838;51.794;12.258;2024-01-06T14:39:05;70.67;;;28.60;;
1679;SDS011;838;51.794;12.258;2024-01-06T14:41:32;77.73;;;25.77;;
1679;SDS011;838;51.794;12.258;2024-01-06T14:43:58;71.40;;;28.33;;
1679;SDS011;838;51.794;12.258;2024-01-06T14:46:24;76.43;;;29.13;;
1679;SDS011;838;51.794;12.258;2024-01-06T14:48:49;75.70;;;27.60;;
1679;SDS011;838;51.794;12.258;2024-01-06T14:51:16;76.33;;;26.77;;
1679;SDS011;838;51.794;12.258;2024-01-06T14:53:42;60.60;;;25.20;;
1679;SDS011;838;51.794;12.258;2024-01-06T14:56:08;67.37;;;27.70;;
1679;SDS011;838;51.794;12.258;2024-01-06T14:58:34;61.20;;;24.27;;